createdAt,value
2023-03-03T00:03:19.964Z,-1.40
2023-03-03T00:09:19.612Z,-1.50
2023-03-03T00:16:06.013Z,-1.70
2023-03-03T00:22:34.944Z,-1.70
2023-03-03T00:28:46.435Z,-1.80
2023-03-03T00:34:45.682Z,-1.90
2023-03-03T00:41:28.149Z,-1.90
2023-03-03T00:47:53.387Z,-1.80
2023-03-03T00:54:03.116Z,-1.90
2023-03-03T01:00:02.181Z,-2.00
2023-03-03T01:06:36.919Z,-2.00
2023-03-03T01:13:02.464Z,-2.00
2023-03-03T01:19:12.855Z,-2.00
2023-03-03T01:25:11.781Z,-2.30
2023-03-03T01:31:46.526Z,-2.20
2023-03-03T01:38:11.657Z,-2.00
2023-03-03T01:44:21.238Z,-2.20
2023-03-03T01:50:28.922Z,-2.40
2023-03-03T01:57:11.252Z,-2.40
2023-03-03T02:03:36.355Z,-2.30
2023-03-03T02:09:52.048Z,-2.50
2023-03-03T02:15:51.797Z,-2.60
2023-03-03T02:22:47.828Z,-2.60
2023-03-03T02:29:12.929Z,-2.60
2023-03-03T02:35:27.997Z,-2.70
2023-03-03T02:41:55.963Z,-2.70
2023-03-03T02:48:30.746Z,-2.70
2023-03-03T02:54:55.779Z,-2.50
2023-03-03T03:01:05.435Z,-2.70
2023-03-03T03:07:04.390Z,-3.00
2023-03-03T03:13:39.120Z,-2.90
2023-03-03T03:20:04.407Z,-2.80
2023-03-03T03:26:14.813Z,-2.90
2023-03-03T03:32:13.738Z,-3.00
2023-03-03T03:38:48.516Z,-3.00
2023-03-03T03:45:16.601Z,-2.90
2023-03-03T03:51:26.320Z,-3.00
2023-03-03T03:57:26.699Z,-3.20
2023-03-03T04:04:01.550Z,-3.20
2023-03-03T04:10:26.558Z,-3.10
2023-03-03T04:16:36.427Z,-3.10
2023-03-03T04:22:36.139Z,-3.30
2023-03-03T04:29:11.152Z,-3.20
2023-03-03T04:35:36.360Z,-3.20
2023-03-03T04:41:45.963Z,-3.20
2023-03-03T04:47:44.885Z,-3.40
2023-03-03T04:54:19.733Z,-3.30
2023-03-03T05:00:53.024Z,-3.30
2023-03-03T05:07:02.670Z,-3.30
2023-03-03T05:13:01.532Z,-3.50
2023-03-03T05:19:36.390Z,-3.50
2023-03-03T05:26:01.550Z,-3.40
2023-03-03T05:32:11.955Z,-3.50
2023-03-03T05:38:11.329Z,-3.60
2023-03-03T05:44:46.066Z,-3.70
2023-03-03T05:51:11.206Z,-3.50
2023-03-03T05:57:20.789Z,-3.60
2023-03-03T06:03:19.739Z,-3.70
2023-03-03T06:09:54.448Z,-3.70
2023-03-03T06:16:19.628Z,-3.50
2023-03-03T06:22:29.249Z,-3.50
2023-03-03T06:28:28.874Z,-3.60
2023-03-03T06:35:03.861Z,-3.40
2023-03-03T06:41:28.991Z,-3.40
2023-03-03T06:47:38.608Z,-3.30
2023-03-03T06:53:37.621Z,-3.00
2023-03-03T07:00:29.520Z,-2.90
2023-03-03T07:03:01.177Z,-2.60
2023-03-03T07:05:29.367Z,-2.40
2023-03-03T07:07:57.216Z,-2.80
2023-03-03T07:10:27.040Z,-2.20
2023-03-03T07:12:56.656Z,-0.80
2023-03-03T07:15:50.837Z,-0.80
2023-03-03T07:18:45.604Z,0.20
2023-03-03T07:21:18.548Z,1.40
2023-03-03T07:23:48.483Z,2.00
2023-03-03T07:26:19.566Z,2.50
2023-03-03T07:29:15.475Z,2.90
2023-03-03T07:31:45.890Z,3.40
2023-03-03T07:34:23.108Z,4.30
2023-03-03T07:36:54.299Z,4.40
2023-03-03T07:43:40.241Z,3.20
2023-03-03T07:49:43.278Z,3.10
2023-03-03T07:56:35.429Z,6.20
2023-03-03T08:03:05.608Z,7.50
2023-03-03T08:09:15.195Z,7.50
2023-03-03T08:14:30.280Z,6.30
2023-03-03T08:20:59.927Z,8.20
2023-03-03T08:27:02.519Z,5.10
2023-03-03T08:33:37.363Z,7.50
2023-03-03T08:40:02.437Z,6.50
2023-03-03T08:46:12.081Z,9.60
2023-03-03T08:52:10.989Z,5.60
2023-03-03T08:59:01.144Z,11.30
2023-03-03T09:05:27.294Z,9.90
2023-03-03T09:11:36.890Z,11.80
2023-03-03T09:17:37.948Z,11.20
2023-03-03T09:24:24.947Z,7.70
2023-03-03T09:30:50.704Z,9.20
2023-03-03T09:37:00.357Z,8.70
2023-03-03T09:43:12.967Z,8.40
2023-03-03T09:50:06.985Z,8.50
2023-03-03T09:56:52.317Z,7.20
2023-03-03T10:03:22.259Z,8.20
2023-03-03T10:09:49.701Z,9.00
2023-03-03T10:16:33.273Z,8.70
2023-03-03T10:23:20.882Z,11.60
2023-03-03T10:29:31.157Z,9.40
2023-03-03T10:35:39.034Z,11.10
2023-03-03T10:42:51.046Z,8.20
2023-03-03T10:49:19.664Z,10.50
2023-03-03T10:55:39.495Z,11.60
2023-03-03T11:01:59.980Z,12.10
2023-03-03T11:08:58.763Z,11.90
2023-03-03T11:15:30.015Z,10.00
2023-03-03T11:22:18.384Z,10.70
2023-03-03T11:28:28.715Z,7.90
2023-03-03T11:35:26.360Z,7.90
2023-03-03T11:42:10.146Z,7.90
2023-03-03T11:48:30.729Z,7.90
2023-03-03T11:54:48.375Z,8.30
2023-03-03T12:01:34.835Z,8.00
2023-03-03T12:08:18.729Z,8.40
2023-03-03T12:14:34.481Z,8.10
2023-03-03T12:21:03.892Z,8.10
2023-03-03T12:28:02.947Z,8.60
2023-03-03T12:34:31.099Z,8.60
2023-03-03T12:40:55.274Z,8.80
2023-03-03T12:47:04.052Z,8.80
2023-03-03T12:53:43.733Z,8.80
2023-03-03T13:00:14.996Z,8.80
2023-03-03T13:06:46.043Z,8.70
2023-03-03T13:12:54.298Z,8.90
2023-03-03T13:19:49.366Z,9.00
2023-03-03T13:26:26.092Z,9.20
2023-03-03T13:32:43.903Z,9.10
2023-03-03T13:38:46.815Z,9.00
2023-03-03T13:45:50.300Z,9.20
2023-03-03T13:52:21.211Z,9.50
2023-03-03T13:58:51.130Z,9.30
2023-03-03T14:04:53.921Z,9.20
2023-03-03T14:11:57.772Z,9.30
2023-03-03T14:18:46.091Z,9.60
2023-03-03T14:25:07.910Z,9.30
2023-03-03T14:31:23.496Z,9.10
2023-03-03T14:38:23.288Z,9.40
2023-03-03T14:44:52.676Z,9.60
2023-03-03T14:51:21.414Z,9.50
2023-03-03T14:57:25.597Z,9.50
2023-03-03T15:04:05.962Z,9.40
2023-03-03T15:10:31.029Z,9.40
2023-03-03T15:16:41.061Z,9.20
2023-03-03T15:22:45.962Z,9.40
2023-03-03T15:29:37.132Z,9.40
2023-03-03T15:36:14.928Z,9.30
2023-03-03T15:42:35.664Z,9.30
2023-03-03T15:48:57.420Z,9.30
2023-03-03T15:56:10.037Z,9.30
2023-03-03T16:02:42.384Z,9.30
2023-03-03T16:09:02.573Z,9.10
2023-03-03T16:15:18.406Z,9.00
2023-03-03T16:22:12.952Z,8.90
2023-03-03T16:28:47.579Z,8.90
2023-03-03T16:35:00.248Z,8.70
2023-03-03T16:41:00.805Z,8.50
2023-03-03T16:47:56.994Z,8.40
2023-03-03T16:54:40.951Z,8.30
2023-03-03T17:01:13.800Z,8.10
2023-03-03T17:07:31.688Z,7.90
2023-03-03T17:14:12.117Z,7.70
2023-03-03T17:20:47.081Z,7.60
2023-03-03T17:27:09.187Z,7.20
2023-03-03T17:33:44.579Z,7.00
2023-03-03T17:40:38.355Z,6.90
2023-03-03T17:47:12.444Z,6.60
2023-03-03T17:53:31.189Z,6.30
2023-03-03T18:00:04.238Z,6.20
2023-03-03T18:07:10.408Z,6.10
2023-03-03T18:13:35.496Z,6.00
2023-03-03T18:20:04.119Z,5.80
2023-03-03T18:26:24.748Z,5.60
2023-03-03T18:33:09.252Z,5.30
2023-03-03T18:39:45.921Z,5.50
2023-03-03T18:45:55.911Z,5.40
2023-03-03T18:52:19.762Z,5.20
2023-03-03T18:58:55.276Z,5.00
2023-03-03T19:05:24.617Z,4.80
2023-03-03T19:11:37.485Z,4.50
2023-03-03T19:19:25.558Z,4.30
2023-03-03T19:26:20.935Z,4.30
2023-03-03T19:32:49.079Z,4.10
2023-03-03T19:39:06.501Z,4.00
2023-03-03T19:45:08.638Z,3.80
2023-03-03T19:51:49.389Z,3.60
2023-03-03T19:58:25.058Z,3.60
2023-03-03T20:04:50.612Z,3.30
2023-03-03T20:11:10.282Z,3.10
2023-03-03T20:18:00.091Z,3.10
2023-03-03T20:24:34.646Z,2.90
2023-03-03T20:30:55.646Z,2.50
2023-03-03T20:37:10.400Z,2.20
2023-03-03T20:44:28.131Z,2.10
2023-03-03T20:50:58.490Z,1.80
2023-03-03T20:57:15.211Z,1.60
2023-03-03T21:03:34.231Z,1.60
2023-03-03T21:10:23.838Z,1.70
2023-03-03T21:16:50.464Z,1.50
2023-03-03T21:23:01.300Z,1.10
2023-03-03T21:29:03.302Z,0.80
2023-03-03T21:35:57.622Z,0.80
2023-03-03T21:42:39.119Z,0.90
2023-03-03T21:48:49.239Z,0.60
2023-03-03T21:54:50.938Z,0.70
2023-03-03T22:01:25.734Z,0.90
2023-03-03T22:07:50.794Z,0.80
2023-03-03T22:14:00.656Z,0.50
2023-03-03T22:19:59.493Z,0.40
2023-03-03T22:26:35.147Z,0.20
2023-03-03T22:33:00.374Z,0.10
2023-03-03T22:39:10.490Z,-0.30
2023-03-03T22:45:10.266Z,-0.50
2023-03-03T22:51:45.801Z,-0.50
2023-03-03T22:58:11.129Z,-0.40
2023-03-03T23:04:20.819Z,0.10
2023-03-03T23:10:20.047Z,0.10
2023-03-03T23:16:54.797Z,0.20
2023-03-03T23:23:19.958Z,-0.10
2023-03-03T23:29:30.491Z,-0.40
2023-03-03T23:35:29.374Z,-0.60
2023-03-03T23:42:04.413Z,-0.80
2023-03-03T23:48:29.467Z,-0.80
2023-03-03T23:54:39.024Z,-0.80
